sensor_id;sensor_type;location;lat;lon;timestamp;pressure;altitude;pressure_sealevel;temperature;humidity
73886;BME280;62217;44.504;11.312;2023-05-08T00:00:26;101259.09;;;22.82;66.24
73886;BME280;62217;44.504;11.312;2023-05-08T00:02:51;101270.56;;;22.84;65.96
73886;BME280;62217;44.504;11.312;2023-05-08T00:05:17;101276.81;;;22.84;66.22
73886;BME280;62217;44.504;11.312;2023-05-08T00:07:43;101291.38;;;22.83;66.02
73886;BME280;62217;44.504;11.312;2023-05-08T00:10:09;101296.00;;;22.83;65.86
73886;BME280;62217;44.504;11.312;2023-05-08T00:12:35;101298.72;;;22.83;66.11
73886;BME280;62217;44.504;11.312;2023-05-08T00:15:03;101303.91;;;22.84;66.12
73886;BME280;62217;44.504;11.312;2023-05-08T00:17:28;101302.22;;;22.83;65.71
73886;BME280;62217;44.504;11.312;2023-05-08T00:19:54;101303.91;;;22.84;65.95
73886;BME280;62217;44.504;11.312;2023-05-08T00:22:19;101312.88;;;22.85;66.01
73886;BME280;62217;44.504;11.312;2023-05-08T00:24:45;101316.22;;;22.87;66.22
73886;BME280;62217;44.504;11.312;2023-05-08T00:27:10;101322.88;;;22.84;65.98
73886;BME280;62217;44.504;11.312;2023-05-08T00:29:37;101327.66;;;22.82;66.20
73886;BME280;62217;44.504;11.312;2023-05-08T00:32:05;101316.63;;;22.84;66.27
73886;BME280;62217;44.504;11.312;2023-05-08T00:34:30;101316.63;;;22.84;66.15
73886;BME280;62217;44.504;11.312;2023-05-08T00:36:56;101313.06;;;22.83;66.20
73886;BME280;62217;44.504;11.312;2023-05-08T00:39:21;101309.34;;;22.84;66.14
73886;BME280;62217;44.504;11.312;2023-05-08T00:41:47;101312.03;;;22.84;66.19
73886;BME280;62217;44.504;11.312;2023-05-08T00:44:12;101319.13;;;22.85;66.07
73886;BME280;62217;44.504;11.312;2023-05-08T00:46:39;101308.50;;;22.84;66.13
73886;BME280;62217;44.504;11.312;2023-05-08T00:49:05;101309.53;;;22.83;66.05
73886;BME280;62217;44.504;11.312;2023-05-08T00:51:34;101310.34;;;22.83;66.21
73886;BME280;62217;44.504;11.312;2023-05-08T00:54:00;101307.03;;;22.81;66.02
73886;BME280;62217;44.504;11.312;2023-05-08T00:56:27;101297.88;;;22.82;66.03
73886;BME280;62217;44.504;11.312;2023-05-08T00:58:53;101301.59;;;22.81;66.29
73886;BME280;62217;44.504;11.312;2023-05-08T01:01:19;101293.69;;;22.80;66.33
73886;BME280;62217;44.504;11.312;2023-05-08T01:03:44;101298.88;;;22.81;66.21
73886;BME280;62217;44.504;11.312;2023-05-08T01:06:10;101290.97;;;22.80;66.29
73886;BME280;62217;44.504;11.312;2023-05-08T01:08:36;101289.28;;;22.79;66.15
73886;BME280;62217;44.504;11.312;2023-05-08T01:28:09;101305.13;;;22.75;66.37
73886;BME280;62217;44.504;11.312;2023-05-08T01:31:04;101317.00;;;22.74;66.25
73886;BME280;62217;44.504;11.312;2023-05-08T01:38:54;101308.88;;;22.74;66.06
73886;BME280;62217;44.504;11.312;2023-05-08T01:41:26;101313.44;;;22.74;66.18
73886;BME280;62217;44.504;11.312;2023-05-08T01:46:26;101315.94;;;22.75;66.07
73886;BME280;62217;44.504;11.312;2023-05-08T01:51:24;101321.75;;;22.72;66.23
73886;BME280;62217;44.504;11.312;2023-05-08T01:53:55;101319.72;;;22.74;66.15
73886;BME280;62217;44.504;11.312;2023-05-08T01:56:24;101329.50;;;22.75;65.83
73886;BME280;62217;44.504;11.312;2023-05-08T01:58:53;101329.09;;;22.78;65.90
73886;BME280;62217;44.504;11.312;2023-05-08T02:01:22;101327.84;;;22.74;66.22
73886;BME280;62217;44.504;11.312;2023-05-08T02:03:49;101327.84;;;22.74;66.24
73886;BME280;62217;44.504;11.312;2023-05-08T02:06:18;101332.84;;;22.77;65.91
73886;BME280;62217;44.504;11.312;2023-05-08T02:08:45;101333.06;;;22.76;65.78
73886;BME280;62217;44.504;11.312;2023-05-08T02:11:12;101336.16;;;22.73;66.32
73886;BME280;62217;44.504;11.312;2023-05-08T02:13:39;101335.31;;;22.72;65.81
73886;BME280;62217;44.504;11.312;2023-05-08T02:16:07;101341.78;;;22.71;66.32
73886;BME280;62217;44.504;11.312;2023-05-08T02:18:34;101345.31;;;22.72;65.85
73886;BME280;62217;44.504;11.312;2023-05-08T02:21:03;101342.63;;;22.72;66.22
73886;BME280;62217;44.504;11.312;2023-05-08T02:23:30;101338.00;;;22.72;66.17
73886;BME280;62217;44.504;11.312;2023-05-08T02:25:58;101338.22;;;22.71;66.34
73886;BME280;62217;44.504;11.312;2023-05-08T02:28:24;101336.34;;;22.71;66.09
73886;BME280;62217;44.504;11.312;2023-05-08T02:30:52;101345.13;;;22.73;66.05
73886;BME280;62217;44.504;11.312;2023-05-08T02:33:18;101344.69;;;22.70;66.56
73886;BME280;62217;44.504;11.312;2023-05-08T02:35:46;101340.28;;;22.69;66.19
73886;BME280;62217;44.504;11.312;2023-05-08T02:38:14;101338.22;;;22.71;66.44
73886;BME280;62217;44.504;11.312;2023-05-08T02:40:46;101331.16;;;22.70;66.60
73886;BME280;62217;44.504;11.312;2023-05-08T02:43:12;101334.66;;;22.70;66.63
73886;BME280;62217;44.504;11.312;2023-05-08T02:48:26;101335.09;;;22.67;65.91
73886;BME280;62217;44.504;11.312;2023-05-08T02:50:59;101343.00;;;22.69;65.96
73886;BME280;62217;44.504;11.312;2023-05-08T02:54:09;101338.44;;;22.69;65.95
73886;BME280;62217;44.504;11.312;2023-05-08T02:56:38;101330.50;;;22.68;65.89
73886;BME280;62217;44.504;11.312;2023-05-08T02:59:18;101326.97;;;22.67;65.84
73886;BME280;62217;44.504;11.312;2023-05-08T03:01:59;101322.19;;;22.69;66.04
73886;BME280;62217;44.504;11.312;2023-05-08T03:04:29;101324.25;;;22.67;66.14
73886;BME280;62217;44.504;11.312;2023-05-08T03:06:56;101329.66;;;22.67;66.00
73886;BME280;62217;44.504;11.312;2023-05-08T03:09:23;101323.41;;;22.67;66.08
73886;BME280;62217;44.504;11.312;2023-05-08T03:11:58;101325.28;;;22.66;66.05
73886;BME280;62217;44.504;11.312;2023-05-08T03:14:26;101318.84;;;22.67;65.74
73886;BME280;62217;44.504;11.312;2023-05-08T03:16:53;101323.78;;;22.64;65.79
73886;BME280;62217;44.504;11.312;2023-05-08T03:19:27;101332.97;;;22.63;66.04
73886;BME280;62217;44.504;11.312;2023-05-08T03:21:54;101332.13;;;22.62;66.01
73886;BME280;62217;44.504;11.312;2023-05-08T03:24:21;101341.31;;;22.61;66.11
73886;BME280;62217;44.504;11.312;2023-05-08T03:26:48;101341.31;;;22.61;65.72
73886;BME280;62217;44.504;11.312;2023-05-08T03:29:14;101350.44;;;22.60;66.00
73886;BME280;62217;44.504;11.312;2023-05-08T03:31:41;101343.38;;;22.59;65.82
73886;BME280;62217;44.504;11.312;2023-05-08T03:34:11;101345.25;;;22.59;66.07
73886;BME280;62217;44.504;11.312;2023-05-08T03:36:37;101352.50;;;22.58;65.89
73886;BME280;62217;44.504;11.312;2023-05-08T03:39:03;101353.53;;;22.57;65.86
73886;BME280;62217;44.504;11.312;2023-05-08T03:41:28;101362.47;;;22.58;65.83
73886;BME280;62217;44.504;11.312;2023-05-08T03:43:55;101361.66;;;22.57;65.63
73886;BME280;62217;44.504;11.312;2023-05-08T03:46:20;101360.63;;;22.58;65.72
73886;BME280;62217;44.504;11.312;2023-05-08T03:48:48;101354.56;;;22.56;65.73
73886;BME280;62217;44.504;11.312;2023-05-08T03:51:15;101363.75;;;22.55;66.03
73886;BME280;62217;44.504;11.312;2023-05-08T03:53:40;101359.13;;;22.56;65.71
73886;BME280;62217;44.504;11.312;2023-05-08T03:56:06;101365.41;;;22.56;65.79
73886;BME280;62217;44.504;11.312;2023-05-08T04:06:35;101370.19;;;22.54;65.75
73886;BME280;62217;44.504;11.312;2023-05-08T04:12:01;101380.38;;;22.52;65.63
73886;BME280;62217;44.504;11.312;2023-05-08T04:14:31;101378.69;;;22.51;65.79
73886;BME280;62217;44.504;11.312;2023-05-08T04:17:04;101384.94;;;22.52;65.39
73886;BME280;62217;44.504;11.312;2023-05-08T04:19:33;101393.28;;;22.50;65.65
73886;BME280;62217;44.504;11.312;2023-05-08T04:22:07;101390.56;;;22.50;65.51
73886;BME280;62217;44.504;11.312;2023-05-08T04:24:40;101397.84;;;22.50;65.65
73886;BME280;62217;44.504;11.312;2023-05-08T04:27:08;101394.50;;;22.48;65.50
73886;BME280;62217;44.504;11.312;2023-05-08T04:29:33;101394.28;;;22.49;65.46
73886;BME280;62217;44.504;11.312;2023-05-08T04:32:00;101399.72;;;22.49;65.28
73886;BME280;62217;44.504;11.312;2023-05-08T04:34:27;101401.41;;;22.50;65.38
73886;BME280;62217;44.504;11.312;2023-05-08T04:36:53;101397.00;;;22.49;65.63
73886;BME280;62217;44.504;11.312;2023-05-08T04:39:19;101403.47;;;22.48;65.29
73886;BME280;62217;44.504;11.312;2023-05-08T04:41:44;101404.09;;;22.50;65.39
73886;BME280;62217;44.504;11.312;2023-05-08T04:44:11;101415.97;;;22.49;65.52
73886;BME280;62217;44.504;11.312;2023-05-08T04:46:37;101403.47;;;22.48;65.45
73886;BME280;62217;44.504;11.312;2023-05-08T04:49:03;101400.75;;;22.48;65.41
73886;BME280;62217;44.504;11.312;2023-05-08T04:51:29;101401.78;;;22.47;65.27
73886;BME280;62217;44.504;11.312;2023-05-08T04:53:55;101406.16;;;22.48;65.66
73886;BME280;62217;44.504;11.312;2023-05-08T04:56:21;101411.78;;;22.47;65.30
73886;BME280;62217;44.504;11.312;2023-05-08T04:58:46;101413.66;;;22.46;65.29
73886;BME280;62217;44.504;11.312;2023-05-08T05:01:12;101420.09;;;22.45;65.70
73886;BME280;62217;44.504;11.312;2023-05-08T05:03:37;101410.94;;;22.46;65.26
73886;BME280;62217;44.504;11.312;2023-05-08T05:06:02;101410.09;;;22.46;65.53
73886;BME280;62217;44.504;11.312;2023-05-08T05:08:28;101411.97;;;22.45;65.39
73886;BME280;62217;44.504;11.312;2023-05-08T05:10:53;101415.31;;;22.47;65.01
73886;BME280;62217;44.504;11.312;2023-05-08T05:13:19;101417.66;;;22.50;65.42
73886;BME280;62217;44.504;11.312;2023-05-08T05:15:44;101416.38;;;22.46;65.31
73886;BME280;62217;44.504;11.312;2023-05-08T05:18:10;101420.09;;;22.45;65.41
73886;BME280;62217;44.504;11.312;2023-05-08T05:20:35;101423.66;;;22.46;65.37
73886;BME280;62217;44.504;11.312;2023-05-08T05:23:01;101424.88;;;22.43;65.28
73886;BME280;62217;44.504;11.312;2023-05-08T05:25:27;101424.88;;;22.43;65.41
73886;BME280;62217;44.504;11.312;2023-05-08T05:27:52;101431.97;;;22.44;65.04
73886;BME280;62217;44.504;11.312;2023-05-08T05:30:18;101435.69;;;22.43;65.17
73886;BME280;62217;44.504;11.312;2023-05-08T05:32:43;101430.28;;;22.43;65.24
73886;BME280;62217;44.504;11.312;2023-05-08T05:35:09;101432.78;;;22.45;65.17
73886;BME280;62217;44.504;11.312;2023-05-08T05:37:34;101442.41;;;22.47;64.76
73886;BME280;62217;44.504;11.312;2023-05-08T05:40:00;101445.38;;;22.52;65.39
73886;BME280;62217;44.504;11.312;2023-05-08T05:42:25;101440.78;;;22.53;65.78
73886;BME280;62217;44.504;11.312;2023-05-08T05:44:51;101439.75;;;22.54;65.52
73886;BME280;62217;44.504;11.312;2023-05-08T05:47:16;101442.00;;;22.50;66.03
73886;BME280;62217;44.504;11.312;2023-05-08T05:49:41;101446.38;;;22.51;65.57
73886;BME280;62217;44.504;11.312;2023-05-08T05:52:11;101450.66;;;22.60;65.81
73886;BME280;62217;44.504;11.312;2023-05-08T05:54:36;101456.09;;;22.60;65.65
73886;BME280;62217;44.504;11.312;2023-05-08T05:57:02;101463.19;;;22.61;66.28
73886;BME280;62217;44.504;11.312;2023-05-08T05:59:28;101458.13;;;22.58;66.06
73886;BME280;62217;44.504;11.312;2023-05-08T06:01:53;101459.16;;;22.57;66.12
73886;BME280;62217;44.504;11.312;2023-05-08T06:04:18;101457.47;;;22.56;66.39
73886;BME280;62217;44.504;11.312;2023-05-08T06:06:44;101452.69;;;22.58;66.27
73886;BME280;62217;44.504;11.312;2023-05-08T06:09:09;101462.91;;;22.56;66.51
73886;BME280;62217;44.504;11.312;2023-05-08T06:11:35;101459.00;;;22.59;66.13
73886;BME280;62217;44.504;11.312;2023-05-08T06:14:00;101462.25;;;22.54;66.38
73886;BME280;62217;44.504;11.312;2023-05-08T06:16:26;101460.19;;;22.56;66.76
